sensor_id;sensor_type;location;lat;lon;timestamp;temperature;humidity
6756;DHT22;3415;51.148;7.014;2023-04-24T00:02:01;9.90;1.00
6756;DHT22;3415;51.148;7.014;2023-04-24T00:04:29;9.90;1.00
6756;DHT22;3415;51.148;7.014;2023-04-24T00:06:57;9.90;1.00
6756;DHT22;3415;51.148;7.014;2023-04-24T00:09:25;9.90;1.00
6756;DHT22;3415;51.148;7.014;2023-04-24T00:11:52;10.00;1.00
6756;DHT22;3415;51.148;7.014;2023-04-24T00:14:20;10.00;1.00
6756;DHT22;3415;51.148;7.014;2023-04-24T00:16:48;10.00;1.00
6756;DHT22;3415;51.148;7.014;2023-04-24T00:19:15;10.10;1.00
6756;DHT22;3415;51.148;7.014;2023-04-24T00:21:42;10.20;1.00
6756;DHT22;3415;51.148;7.014;2023-04-24T00:24:09;10.20;1.00
6756;DHT22;3415;51.148;7.014;2023-04-24T00:26:36;10.30;1.00
6756;DHT22;3415;51.148;7.014;2023-04-24T00:29:03;10.30;1.00
6756;DHT22;3415;51.148;7.014;2023-04-24T00:31:29;10.30;1.00
6756;DHT22;3415;51.148;7.014;2023-04-24T00:33:58;10.30;1.00
6756;DHT22;3415;51.148;7.014;2023-04-24T00:36:25;10.40;1.00
6756;DHT22;3415;51.148;7.014;2023-04-24T00:38:52;10.40;1.00
6756;DHT22;3415;51.148;7.014;2023-04-24T00:41:19;10.40;1.00
6756;DHT22;3415;51.148;7.014;2023-04-24T00:43:46;10.40;1.00
6756;DHT22;3415;51.148;7.014;2023-04-24T00:46:13;10.40;1.00
6756;DHT22;3415;51.148;7.014;2023-04-24T00:48:40;10.50;1.00
6756;DHT22;3415;51.148;7.014;2023-04-24T00:51:09;10.50;1.00
6756;DHT22;3415;51.148;7.014;2023-04-24T00:53:36;10.50;1.00
6756;DHT22;3415;51.148;7.014;2023-04-24T00:56:03;10.50;1.00
6756;DHT22;3415;51.148;7.014;2023-04-24T00:58:31;10.50;1.00
6756;DHT22;3415;51.148;7.014;2023-04-24T01:00:58;10.50;1.00
6756;DHT22;3415;51.148;7.014;2023-04-24T01:03:29;10.50;1.00
6756;DHT22;3415;51.148;7.014;2023-04-24T01:05:57;10.50;1.00
6756;DHT22;3415;51.148;7.014;2023-04-24T01:08:26;10.50;1.00
6756;DHT22;3415;51.148;7.014;2023-04-24T01:10:55;10.50;1.00
6756;DHT22;3415;51.148;7.014;2023-04-24T01:13:23;10.50;1.00
6756;DHT22;3415;51.148;7.014;2023-04-24T01:15:50;10.50;1.00
6756;DHT22;3415;51.148;7.014;2023-04-24T01:18:17;10.50;1.00
6756;DHT22;3415;51.148;7.014;2023-04-24T01:20:45;10.50;1.00
6756;DHT22;3415;51.148;7.014;2023-04-24T01:23:14;10.50;1.00
6756;DHT22;3415;51.148;7.014;2023-04-24T01:25:41;10.50;1.00
6756;DHT22;3415;51.148;7.014;2023-04-24T01:28:08;10.50;1.00
6756;DHT22;3415;51.148;7.014;2023-04-24T01:30:35;10.40;1.00
6756;DHT22;3415;51.148;7.014;2023-04-24T01:33:02;10.40;1.00
6756;DHT22;3415;51.148;7.014;2023-04-24T01:35:29;10.30;1.00
6756;DHT22;3415;51.148;7.014;2023-04-24T01:40:24;10.30;1.00
6756;DHT22;3415;51.148;7.014;2023-04-24T01:42:51;10.20;1.00
6756;DHT22;3415;51.148;7.014;2023-04-24T01:45:19;10.10;1.00
6756;DHT22;3415;51.148;7.014;2023-04-24T01:47:45;10.10;1.00
6756;DHT22;3415;51.148;7.014;2023-04-24T01:50:14;10.20;1.00
6756;DHT22;3415;51.148;7.014;2023-04-24T01:52:41;9.90;1.00
6756;DHT22;3415;51.148;7.014;2023-04-24T01:55:09;9.90;1.00
6756;DHT22;3415;51.148;7.014;2023-04-24T01:57:37;9.80;1.00
6756;DHT22;3415;51.148;7.014;2023-04-24T02:00:05;9.60;1.00
6756;DHT22;3415;51.148;7.014;2023-04-24T02:02:33;9.60;1.00
6756;DHT22;3415;51.148;7.014;2023-04-24T02:05:00;9.60;1.00
6756;DHT22;3415;51.148;7.014;2023-04-24T02:07:27;9.50;1.00
6756;DHT22;3415;51.148;7.014;2023-04-24T02:09:53;9.40;1.00
6756;DHT22;3415;51.148;7.014;2023-04-24T02:12:20;9.30;1.00
6756;DHT22;3415;51.148;7.014;2023-04-24T02:14:49;9.20;1.00
6756;DHT22;3415;51.148;7.014;2023-04-24T02:17:17;9.10;1.00
6756;DHT22;3415;51.148;7.014;2023-04-24T02:19:44;9.10;1.00
6756;DHT22;3415;51.148;7.014;2023-04-24T02:22:11;9.00;1.00
6756;DHT22;3415;51.148;7.014;2023-04-24T02:24:38;8.80;1.00
6756;DHT22;3415;51.148;7.014;2023-04-24T02:27:05;8.80;1.00
6756;DHT22;3415;51.148;7.014;2023-04-24T02:29:33;8.80;1.00
6756;DHT22;3415;51.148;7.014;2023-04-24T02:32:01;8.70;1.00
6756;DHT22;3415;51.148;7.014;2023-04-24T02:34:28;8.70;1.00
6756;DHT22;3415;51.148;7.014;2023-04-24T02:36:54;8.80;1.00
6756;DHT22;3415;51.148;7.014;2023-04-24T02:39:21;8.90;1.00
6756;DHT22;3415;51.148;7.014;2023-04-24T02:41:48;8.80;1.00
6756;DHT22;3415;51.148;7.014;2023-04-24T02:44:15;8.80;1.00
6756;DHT22;3415;51.148;7.014;2023-04-24T02:46:42;8.80;1.00
6756;DHT22;3415;51.148;7.014;2023-04-24T02:49:11;9.10;1.00
6756;DHT22;3415;51.148;7.014;2023-04-24T02:51:38;9.00;1.00
6756;DHT22;3415;51.148;7.014;2023-04-24T02:54:06;9.00;1.00
6756;DHT22;3415;51.148;7.014;2023-04-24T02:56:33;9.80;1.00
6756;DHT22;3415;51.148;7.014;2023-04-24T02:59:00;9.00;1.00
6756;DHT22;3415;51.148;7.014;2023-04-24T03:01:27;9.00;1.00
6756;DHT22;3415;51.148;7.014;2023-04-24T03:03:54;9.10;1.00
6756;DHT22;3415;51.148;7.014;2023-04-24T03:06:22;9.00;1.00
6756;DHT22;3415;51.148;7.014;2023-04-24T03:08:49;9.00;1.00
6756;DHT22;3415;51.148;7.014;2023-04-24T03:11:15;9.00;1.00
6756;DHT22;3415;51.148;7.014;2023-04-24T03:13:42;9.00;1.00
6756;DHT22;3415;51.148;7.014;2023-04-24T03:16:09;9.00;1.00
6756;DHT22;3415;51.148;7.014;2023-04-24T03:18:36;9.10;1.00
6756;DHT22;3415;51.148;7.014;2023-04-24T03:21:03;9.10;1.00
6756;DHT22;3415;51.148;7.014;2023-04-24T03:23:31;9.10;1.00
6756;DHT22;3415;51.148;7.014;2023-04-24T03:25:58;9.10;1.00
6756;DHT22;3415;51.148;7.014;2023-04-24T03:28:25;9.20;1.00
6756;DHT22;3415;51.148;7.014;2023-04-24T03:30:52;9.20;1.00
6756;DHT22;3415;51.148;7.014;2023-04-24T03:33:19;9.20;1.00
6756;DHT22;3415;51.148;7.014;2023-04-24T03:35:45;9.20;1.00
6756;DHT22;3415;51.148;7.014;2023-04-24T03:40:41;9.20;1.00
6756;DHT22;3415;51.148;7.014;2023-04-24T03:43:07;9.20;1.00
6756;DHT22;3415;51.148;7.014;2023-04-24T03:45:34;9.60;1.00
6756;DHT22;3415;51.148;7.014;2023-04-24T03:48:01;9.20;1.00
6756;DHT22;3415;51.148;7.014;2023-04-24T03:50:28;9.20;1.00
6756;DHT22;3415;51.148;7.014;2023-04-24T03:52:55;9.20;1.00
6756;DHT22;3415;51.148;7.014;2023-04-24T03:55:22;9.20;1.00
6756;DHT22;3415;51.148;7.014;2023-04-24T03:57:50;9.20;1.00
6756;DHT22;3415;51.148;7.014;2023-04-24T04:00:17;9.10;1.00
6756;DHT22;3415;51.148;7.014;2023-04-24T04:02:44;9.20;1.00
6756;DHT22;3415;51.148;7.014;2023-04-24T04:05:10;9.20;1.00
6756;DHT22;3415;51.148;7.014;2023-04-24T04:07:37;9.10;1.00
6756;DHT22;3415;51.148;7.014;2023-04-24T04:10:05;9.20;1.00
6756;DHT22;3415;51.148;7.014;2023-04-24T04:12:33;9.20;1.00
6756;DHT22;3415;51.148;7.014;2023-04-24T04:15:01;9.20;1.00
6756;DHT22;3415;51.148;7.014;2023-04-24T04:17:28;9.20;1.00
6756;DHT22;3415;51.148;7.014;2023-04-24T04:19:55;9.20;1.00
6756;DHT22;3415;51.148;7.014;2023-04-24T04:22:22;9.10;1.00
6756;DHT22;3415;51.148;7.014;2023-04-24T04:24:49;9.20;1.00
6756;DHT22;3415;51.148;7.014;2023-04-24T04:27:16;9.20;1.00
6756;DHT22;3415;51.148;7.014;2023-04-24T04:29:44;9.20;1.00
6756;DHT22;3415;51.148;7.014;2023-04-24T04:32:12;9.20;1.00
6756;DHT22;3415;51.148;7.014;2023-04-24T04:34:39;9.00;1.00
6756;DHT22;3415;51.148;7.014;2023-04-24T04:37:06;8.80;1.00
6756;DHT22;3415;51.148;7.014;2023-04-24T04:39:33;8.70;1.00
6756;DHT22;3415;51.148;7.014;2023-04-24T04:41:59;8.70;1.00
6756;DHT22;3415;51.148;7.014;2023-04-24T04:44:26;8.60;1.00
6756;DHT22;3415;51.148;7.014;2023-04-24T04:46:54;8.70;1.00
6756;DHT22;3415;51.148;7.014;2023-04-24T04:49:23;8.70;1.00
6756;DHT22;3415;51.148;7.014;2023-04-24T04:51:50;8.80;1.00
6756;DHT22;3415;51.148;7.014;2023-04-24T04:54:17;8.80;1.00
6756;DHT22;3415;51.148;7.014;2023-04-24T04:56:44;8.80;1.00
6756;DHT22;3415;51.148;7.014;2023-04-24T04:59:11;8.80;1.00
6756;DHT22;3415;51.148;7.014;2023-04-24T05:01:38;8.70;1.00
6756;DHT22;3415;51.148;7.014;2023-04-24T05:04:05;8.60;1.00
6756;DHT22;3415;51.148;7.014;2023-04-24T05:06:33;8.60;1.00
6756;DHT22;3415;51.148;7.014;2023-04-24T05:09:00;8.60;1.00
6756;DHT22;3415;51.148;7.014;2023-04-24T05:11:28;8.60;1.00
6756;DHT22;3415;51.148;7.014;2023-04-24T05:13:55;8.60;1.00
6756;DHT22;3415;51.148;7.014;2023-04-24T05:16:22;8.60;1.00
6756;DHT22;3415;51.148;7.014;2023-04-24T05:18:49;8.70;1.00
6756;DHT22;3415;51.148;7.014;2023-04-24T05:21:16;8.80;1.00
6756;DHT22;3415;51.148;7.014;2023-04-24T05:23:44;8.70;1.00
6756;DHT22;3415;51.148;7.014;2023-04-24T05:26:11;8.90;1.00
6756;DHT22;3415;51.148;7.014;2023-04-24T05:28:38;8.80;1.00
6756;DHT22;3415;51.148;7.014;2023-04-24T05:31:05;8.90;1.00
6756;DHT22;3415;51.148;7.014;2023-04-24T05:33:32;8.90;1.00
6756;DHT22;3415;51.148;7.014;2023-04-24T05:35:59;9.00;1.00
6756;DHT22;3415;51.148;7.014;2023-04-24T05:38:26;9.00;1.00
6756;DHT22;3415;51.148;7.014;2023-04-24T05:40:54;8.90;1.00
6756;DHT22;3415;51.148;7.014;2023-04-24T05:43:21;8.90;1.00
6756;DHT22;3415;51.148;7.014;2023-04-24T05:45:48;8.90;1.00
6756;DHT22;3415;51.148;7.014;2023-04-24T05:48:15;8.70;1.00
6756;DHT22;3415;51.148;7.014;2023-04-24T05:50:42;8.70;1.00
6756;DHT22;3415;51.148;7.014;2023-04-24T05:53:08;8.60;1.00
6756;DHT22;3415;51.148;7.014;2023-04-24T05:55:36;8.50;1.00
6756;DHT22;3415;51.148;7.014;2023-04-24T05:58:04;8.30;1.00
6756;DHT22;3415;51.148;7.014;2023-04-24T06:00:31;8.20;1.00
6756;DHT22;3415;51.148;7.014;2023-04-24T06:03:00;8.10;1.00
6756;DHT22;3415;51.148;7.014;2023-04-24T06:05:29;8.10;1.00
6756;DHT22;3415;51.148;7.014;2023-04-24T06:07:56;8.10;1.00
6756;DHT22;3415;51.148;7.014;2023-04-24T06:10:23;8.10;1.00
6756;DHT22;3415;51.148;7.014;2023-04-24T06:12:50;8.10;1.00
6756;DHT22;3415;51.148;7.014;2023-04-24T06:15:18;8.10;1.00
6756;DHT22;3415;51.148;7.014;2023-04-24T06:20:12;8.00;1.00
6756;DHT22;3415;51.148;7.014;2023-04-24T06:22:39;9.30;1.00
6756;DHT22;3415;51.148;7.014;2023-04-24T06:25:07;8.10;1.00
6756;DHT22;3415;51.148;7.014;2023-04-24T06:27:34;8.10;1.00
6756;DHT22;3415;51.148;7.014;2023-04-24T06:30:01;8.10;1.00
6756;DHT22;3415;51.148;7.014;2023-04-24T06:32:29;8.80;1.00
6756;DHT22;3415;51.148;7.014;2023-04-24T06:34:56;8.10;1.00
6756;DHT22;3415;51.148;7.014;2023-04-24T06:37:23;8.20;1.00
6756;DHT22;3415;51.148;7.014;2023-04-24T06:39:50;8.10;1.00
6756;DHT22;3415;51.148;7.014;2023-04-24T06:42:17;8.10;1.00
6756;DHT22;3415;51.148;7.014;2023-04-24T06:44:46;8.20;1.00
6756;DHT22;3415;51.148;7.014;2023-04-24T06:47:13;8.00;1.00
6756;DHT22;3415;51.148;7.014;2023-04-24T06:49:41;8.10;1.00
6756;DHT22;3415;51.148;7.014;2023-04-24T06:52:08;8.00;1.00
6756;DHT22;3415;51.148;7.014;2023-04-24T06:54:35;8.00;1.00
6756;DHT22;3415;51.148;7.014;2023-04-24T06:57:02;8.00;1.00
6756;DHT22;3415;51.148;7.014;2023-04-24T06:59:29;8.00;1.00
6756;DHT22;3415;51.148;7.014;2023-04-24T07:01:56;8.00;1.00
6756;DHT22;3415;51.148;7.014;2023-04-24T07:04:23;8.00;42.20
6756;DHT22;3415;51.148;7.014;2023-04-24T07:06:52;8.00;42.30
6756;DHT22;3415;51.148;7.014;2023-04-24T07:09:21;8.00;42.20
6756;DHT22;3415;51.148;7.014;2023-04-24T07:11:49;8.00;42.20
6756;DHT22;3415;51.148;7.014;2023-04-24T07:14:16;7.90;68.70
6756;DHT22;3415;51.148;7.014;2023-04-24T07:16:43;7.90;99.90
6756;DHT22;3415;51.148;7.014;2023-04-24T07:19:11;7.90;99.90
6756;DHT22;3415;51.148;7.014;2023-04-24T07:21:37;7.90;99.90
6756;DHT22;3415;51.148;7.014;2023-04-24T07:24:06;8.10;99.90
6756;DHT22;3415;51.148;7.014;2023-04-24T07:26:37;7.90;99.90
6756;DHT22;3415;51.148;7.014;2023-04-24T07:29:04;7.90;99.90
6756;DHT22;3415;51.148;7.014;2023-04-24T07:31:31;7.90;99.90
6756;DHT22;3415;51.148;7.014;2023-04-24T07:33:58;7.90;99.90
6756;DHT22;3415;51.148;7.014;2023-04-24T07:38:54;7.90;99.90
6756;DHT22;3415;51.148;7.014;2023-04-24T07:41:22;7.90;99.90
6756;DHT22;3415;51.148;7.014;2023-04-24T07:43:49;7.80;99.90
6756;DHT22;3415;51.148;7.014;2023-04-24T07:46:16;7.90;99.90
6756;DHT22;3415;51.148;7.014;2023-04-24T07:48:43;7.90;99.90
6756;DHT22;3415;51.148;7.014;2023-04-24T07:51:11;7.90;99.90
6756;DHT22;3415;51.148;7.014;2023-04-24T07:53:38;7.90;99.90
6756;DHT22;3415;51.148;7.014;2023-04-24T07:56:05;7.80;99.90
6756;DHT22;3415;51.148;7.014;2023-04-24T07:58:34;7.90;99.90
6756;DHT22;3415;51.148;7.014;2023-04-24T08:01:01;7.80;99.90
6756;DHT22;3415;51.148;7.014;2023-04-24T08:03:28;7.70;99.90
6756;DHT22;3415;51.148;7.014;2023-04-24T08:05:55;7.60;99.90
6756;DHT22;3415;51.148;7.014;2023-04-24T08:08:22;7.20;99.90
6756;DHT22;3415;51.148;7.014;2023-04-24T08:10:49;7.20;99.90
6756;DHT22;3415;51.148;7.014;2023-04-24T08:13:16;7.00;99.90
6756;DHT22;3415;51.148;7.014;2023-04-24T08:15:44;7.00;99.90
6756;DHT22;3415;51.148;7.014;2023-04-24T08:20:39;7.00;99.90
6756;DHT22;3415;51.148;7.014;2023-04-24T08:23:06;7.00;99.90
6756;DHT22;3415;51.148;7.014;2023-04-24T08:25:33;7.00;99.90
6756;DHT22;3415;51.148;7.014;2023-04-24T08:28:01;7.00;99.90
6756;DHT22;3415;51.148;7.014;2023-04-24T08:30:29;7.00;99.90
6756;DHT22;3415;51.148;7.014;2023-04-24T08:32:58;6.90;99.90
6756;DHT22;3415;51.148;7.014;2023-04-24T08:35:25;4.90;99.90
6756;DHT22;3415;51.148;7.014;2023-04-24T08:37:52;7.00;99.90
6756;DHT22;3415;51.148;7.014;2023-04-24T08:40:25;7.10;99.90
6756;DHT22;3415;51.148;7.014;2023-04-24T08:42:55;7.10;99.90
6756;DHT22;3415;51.148;7.014;2023-04-24T08:45:23;7.20;99.90
6756;DHT22;3415;51.148;7.014;2023-04-24T08:47:52;7.20;99.90
6756;DHT22;3415;51.148;7.014;2023-04-24T08:50:22;7.30;99.90
6756;DHT22;3415;51.148;7.014;2023-04-24T08:52:50;7.30;99.90
6756;DHT22;3415;51.148;7.014;2023-04-24T08:55:19;7.30;99.90
6756;DHT22;3415;51.148;7.014;2023-04-24T08:57:50;7.40;99.90
6756;DHT22;3415;51.148;7.014;2023-04-24T09:00:19;7.40;99.90
6756;DHT22;3415;51.148;7.014;2023-04-24T09:02:49;7.40;99.90
6756;DHT22;3415;51.148;7.014;2023-04-24T09:05:17;7.40;99.90
6756;DHT22;3415;51.148;7.014;2023-04-24T09:07:49;7.40;99.90
6756;DHT22;3415;51.148;7.014;2023-04-24T09:10:19;7.40;99.90
6756;DHT22;3415;51.148;7.014;2023-04-24T09:12:46;7.50;99.90
6756;DHT22;3415;51.148;7.014;2023-04-24T09:17:40;7.70;99.90
6756;DHT22;3415;51.148;7.014;2023-04-24T09:20:08;7.70;99.90
6756;DHT22;3415;51.148;7.014;2023-04-24T09:22:35;7.70;99.90
6756;DHT22;3415;51.148;7.014;2023-04-24T09:25:05;7.80;99.90
6756;DHT22;3415;51.148;7.014;2023-04-24T09:27:33;7.80;99.90
6756;DHT22;3415;51.148;7.014;2023-04-24T09:30:00;7.80;99.90
6756;DHT22;3415;51.148;7.014;2023-04-24T09:32:28;7.80;99.90
6756;DHT22;3415;51.148;7.014;2023-04-24T09:35:10;7.90;99.90
6756;DHT22;3415;51.148;7.014;2023-04-24T09:37:38;7.90;99.90
6756;DHT22;3415;51.148;7.014;2023-04-24T09:40:25;7.90;99.90
6756;DHT22;3415;51.148;7.014;2023-04-24T09:42:53;7.90;99.90
6756;DHT22;3415;51.148;7.014;2023-04-24T09:45:21;7.80;99.90
6756;DHT22;3415;51.148;7.014;2023-04-24T09:47:51;7.80;99.90
6756;DHT22;3415;51.148;7.014;2023-04-24T09:52:47;7.80;99.90
6756;DHT22;3415;51.148;7.014;2023-04-24T09:55:22;7.80;99.90
6756;DHT22;3415;51.148;7.014;2023-04-24T09:57:51;7.80;99.90
6756;DHT22;3415;51.148;7.014;2023-04-24T10:00:21;7.80;99.90
6756;DHT22;3415;51.148;7.014;2023-04-24T10:02:54;7.90;99.90
6756;DHT22;3415;51.148;7.014;2023-04-24T10:05:28;7.90;99.90
6756;DHT22;3415;51.148;7.014;2023-04-24T10:08:00;8.00;99.90
6756;DHT22;3415;51.148;7.014;2023-04-24T10:10:28;7.90;99.90
6756;DHT22;3415;51.148;7.014;2023-04-24T10:12:56;7.90;99.90
6756;DHT22;3415;51.148;7.014;2023-04-24T10:15:24;7.90;99.90
6756;DHT22;3415;51.148;7.014;2023-04-24T10:17:52;8.00;99.90
6756;DHT22;3415;51.148;7.014;2023-04-24T10:20:20;8.00;99.90
6756;DHT22;3415;51.148;7.014;2023-04-24T10:22:49;8.10;99.90
6756;DHT22;3415;51.148;7.014;2023-04-24T10:25:18;8.20;99.90
6756;DHT22;3415;51.148;7.014;2023-04-24T10:27:46;8.20;99.90
6756;DHT22;3415;51.148;7.014;2023-04-24T10:30:16;8.30;99.90
6756;DHT22;3415;51.148;7.014;2023-04-24T10:32:43;8.30;99.90
6756;DHT22;3415;51.148;7.014;2023-04-24T10:35:12;8.30;99.90
6756;DHT22;3415;51.148;7.014;2023-04-24T10:37:43;8.40;99.90
6756;DHT22;3415;51.148;7.014;2023-04-24T10:40:12;8.50;99.90
6756;DHT22;3415;51.148;7.014;2023-04-24T10:42:42;8.60;99.90
6756;DHT22;3415;51.148;7.014;2023-04-24T10:45:18;8.70;99.90
6756;DHT22;3415;51.148;7.014;2023-04-24T10:47:56;8.90;99.90
6756;DHT22;3415;51.148;7.014;2023-04-24T10:50:24;9.00;99.90
6756;DHT22;3415;51.148;7.014;2023-04-24T10:52:51;8.80;99.90
6756;DHT22;3415;51.148;7.014;2023-04-24T10:55:41;8.80;99.90
6756;DHT22;3415;51.148;7.014;2023-04-24T10:58:08;9.00;99.90
6756;DHT22;3415;51.148;7.014;2023-04-24T11:00:38;9.10;99.90
6756;DHT22;3415;51.148;7.014;2023-04-24T11:03:05;9.30;99.90
6756;DHT22;3415;51.148;7.014;2023-04-24T11:05:52;9.20;99.90
6756;DHT22;3415;51.148;7.014;2023-04-24T11:08:24;12.50;99.90
6756;DHT22;3415;51.148;7.014;2023-04-24T11:11:02;9.20;99.90
6756;DHT22;3415;51.148;7.014;2023-04-24T11:14:02;9.20;99.90
6756;DHT22;3415;51.148;7.014;2023-04-24T11:16:32;9.30;99.90
6756;DHT22;3415;51.148;7.014;2023-04-24T11:19:03;9.30;99.90
6756;DHT22;3415;51.148;7.014;2023-04-24T11:21:32;9.40;99.90
6756;DHT22;3415;51.148;7.014;2023-04-24T11:24:26;9.40;99.90
6756;DHT22;3415;51.148;7.014;2023-04-24T11:26:54;9.30;99.90
6756;DHT22;3415;51.148;7.014;2023-04-24T11:29:22;9.10;99.90
6756;DHT22;3415;51.148;7.014;2023-04-24T11:31:51;9.10;99.90
6756;DHT22;3415;51.148;7.014;2023-04-24T11:34:18;9.10;99.90
6756;DHT22;3415;51.148;7.014;2023-04-24T11:36:45;9.10;99.90
6756;DHT22;3415;51.148;7.014;2023-04-24T11:39:13;9.50;99.90
6756;DHT22;3415;51.148;7.014;2023-04-24T11:41:40;9.80;99.90
6756;DHT22;3415;51.148;7.014;2023-04-24T11:44:09;9.90;99.90
6756;DHT22;3415;51.148;7.014;2023-04-24T11:46:36;9.90;92.10
6756;DHT22;3415;51.148;7.014;2023-04-24T11:49:06;9.70;70.60
6756;DHT22;3415;51.148;7.014;2023-04-24T11:51:34;9.80;43.70
6756;DHT22;3415;51.148;7.014;2023-04-24T11:54:01;10.00;1.00
6756;DHT22;3415;51.148;7.014;2023-04-24T11:56:29;9.80;1.00
6756;DHT22;3415;51.148;7.014;2023-04-24T11:58:56;9.10;1.00
6756;DHT22;3415;51.148;7.014;2023-04-24T12:01:23;10.10;1.00
6756;DHT22;3415;51.148;7.014;2023-04-24T12:03:50;10.20;1.00
6756;DHT22;3415;51.148;7.014;2023-04-24T12:06:26;10.40;1.00
6756;DHT22;3415;51.148;7.014;2023-04-24T12:08:53;10.40;1.00
6756;DHT22;3415;51.148;7.014;2023-04-24T12:11:23;10.30;1.00
6756;DHT22;3415;51.148;7.014;2023-04-24T12:13:50;10.30;1.00
6756;DHT22;3415;51.148;7.014;2023-04-24T12:16:17;10.50;1.00
6756;DHT22;3415;51.148;7.014;2023-04-24T12:18:44;10.40;1.00
6756;DHT22;3415;51.148;7.014;2023-04-24T12:21:16;10.60;1.00
6756;DHT22;3415;51.148;7.014;2023-04-24T12:23:45;10.20;1.00
6756;DHT22;3415;51.148;7.014;2023-04-24T12:26:12;10.20;1.00
6756;DHT22;3415;51.148;7.014;2023-04-24T12:31:09;10.50;1.00
6756;DHT22;3415;51.148;7.014;2023-04-24T12:33:36;10.50;1.00
6756;DHT22;3415;51.148;7.014;2023-04-24T12:36:04;10.40;1.00
6756;DHT22;3415;51.148;7.014;2023-04-24T12:38:32;10.40;1.00
6756;DHT22;3415;51.148;7.014;2023-04-24T12:41:08;10.40;1.00
6756;DHT22;3415;51.148;7.014;2023-04-24T12:43:35;10.40;1.00
6756;DHT22;3415;51.148;7.014;2023-04-24T12:46:03;10.50;1.00
6756;DHT22;3415;51.148;7.014;2023-04-24T12:48:30;10.40;1.00
6756;DHT22;3415;51.148;7.014;2023-04-24T12:50:58;10.20;1.00
6756;DHT22;3415;51.148;7.014;2023-04-24T12:53:27;7.80;1.00
6756;DHT22;3415;51.148;7.014;2023-04-24T12:55:55;9.90;1.00
6756;DHT22;3415;51.148;7.014;2023-04-24T12:58:23;10.10;1.00
6756;DHT22;3415;51.148;7.014;2023-04-24T13:00:50;9.80;1.00
6756;DHT22;3415;51.148;7.014;2023-04-24T13:03:18;10.00;1.00
6756;DHT22;3415;51.148;7.014;2023-04-24T13:05:45;9.80;1.00
6756;DHT22;3415;51.148;7.014;2023-04-24T13:08:12;10.20;1.00
6756;DHT22;3415;51.148;7.014;2023-04-24T13:10:39;10.50;1.00
6756;DHT22;3415;51.148;7.014;2023-04-24T13:13:07;11.00;1.00
6756;DHT22;3415;51.148;7.014;2023-04-24T13:15:36;11.10;1.00
6756;DHT22;3415;51.148;7.014;2023-04-24T13:18:03;10.90;1.00
6756;DHT22;3415;51.148;7.014;2023-04-24T13:20:30;10.60;1.00
6756;DHT22;3415;51.148;7.014;2023-04-24T13:22:57;10.60;1.00
6756;DHT22;3415;51.148;7.014;2023-04-24T13:25:24;10.40;1.00
6756;DHT22;3415;51.148;7.014;2023-04-24T13:27:51;10.30;1.00
6756;DHT22;3415;51.148;7.014;2023-04-24T13:30:19;10.40;1.00
6756;DHT22;3415;51.148;7.014;2023-04-24T13:32:47;10.60;1.00
6756;DHT22;3415;51.148;7.014;2023-04-24T13:35:14;10.80;1.00
6756;DHT22;3415;51.148;7.014;2023-04-24T13:37:41;10.90;1.00
6756;DHT22;3415;51.148;7.014;2023-04-24T13:40:09;11.20;1.00
6756;DHT22;3415;51.148;7.014;2023-04-24T13:42:36;11.50;1.00
6756;DHT22;3415;51.148;7.014;2023-04-24T13:45:03;11.90;1.00
6756;DHT22;3415;51.148;7.014;2023-04-24T13:47:30;12.40;1.00
6756;DHT22;3415;51.148;7.014;2023-04-24T13:49:58;12.40;1.00
6756;DHT22;3415;51.148;7.014;2023-04-24T13:52:25;12.00;1.00
6756;DHT22;3415;51.148;7.014;2023-04-24T13:54:52;11.80;1.00
6756;DHT22;3415;51.148;7.014;2023-04-24T13:57:19;11.60;1.00
6756;DHT22;3415;51.148;7.014;2023-04-24T13:59:46;11.20;1.00
6756;DHT22;3415;51.148;7.014;2023-04-24T14:02:13;11.10;1.00
6756;DHT22;3415;51.148;7.014;2023-04-24T14:04:40;11.20;1.00
6756;DHT22;3415;51.148;7.014;2023-04-24T14:07:08;11.20;1.00
6756;DHT22;3415;51.148;7.014;2023-04-24T14:09:35;11.30;1.00
6756;DHT22;3415;51.148;7.014;2023-04-24T14:12:02;11.50;1.00
6756;DHT22;3415;51.148;7.014;2023-04-24T14:14:29;11.40;1.00
6756;DHT22;3415;51.148;7.014;2023-04-24T14:16:56;11.50;1.00
6756;DHT22;3415;51.148;7.014;2023-04-24T14:19:23;11.10;1.00
6756;DHT22;3415;51.148;7.014;2023-04-24T14:21:50;10.80;1.00
6756;DHT22;3415;51.148;7.014;2023-04-24T14:24:19;10.80;1.00
6756;DHT22;3415;51.148;7.014;2023-04-24T14:26:45;10.70;1.00
6756;DHT22;3415;51.148;7.014;2023-04-24T14:29:12;10.50;1.00
6756;DHT22;3415;51.148;7.014;2023-04-24T14:31:39;10.40;1.00
6756;DHT22;3415;51.148;7.014;2023-04-24T14:34:06;10.90;1.00
6756;DHT22;3415;51.148;7.014;2023-04-24T14:36:33;11.10;1.00
6756;DHT22;3415;51.148;7.014;2023-04-24T14:39:00;11.20;1.00
6756;DHT22;3415;51.148;7.014;2023-04-24T14:41:32;11.20;1.00
6756;DHT22;3415;51.148;7.014;2023-04-24T14:44:01;11.30;1.00
6756;DHT22;3415;51.148;7.014;2023-04-24T14:46:28;11.20;1.00
6756;DHT22;3415;51.148;7.014;2023-04-24T14:48:55;11.10;1.00
6756;DHT22;3415;51.148;7.014;2023-04-24T14:51:22;11.00;1.00
6756;DHT22;3415;51.148;7.014;2023-04-24T14:53:49;10.80;1.00
6756;DHT22;3415;51.148;7.014;2023-04-24T14:56:16;11.00;1.00
6756;DHT22;3415;51.148;7.014;2023-04-24T14:58:44;11.00;1.00
6756;DHT22;3415;51.148;7.014;2023-04-24T15:01:11;11.10;1.00
6756;DHT22;3415;51.148;7.014;2023-04-24T15:03:38;11.50;1.00
6756;DHT22;3415;51.148;7.014;2023-04-24T15:06:05;11.60;1.00
6756;DHT22;3415;51.148;7.014;2023-04-24T15:08:32;11.50;1.00
6756;DHT22;3415;51.148;7.014;2023-04-24T15:10:59;11.50;1.00
6756;DHT22;3415;51.148;7.014;2023-04-24T15:13:26;11.40;1.00
6756;DHT22;3415;51.148;7.014;2023-04-24T15:15:54;11.50;1.00
6756;DHT22;3415;51.148;7.014;2023-04-24T15:18:21;11.40;1.00
6756;DHT22;3415;51.148;7.014;2023-04-24T15:20:48;11.50;1.00
6756;DHT22;3415;51.148;7.014;2023-04-24T15:23:15;11.50;1.00
6756;DHT22;3415;51.148;7.014;2023-04-24T15:25:43;11.70;1.00
6756;DHT22;3415;51.148;7.014;2023-04-24T15:28:10;11.80;1.00
6756;DHT22;3415;51.148;7.014;2023-04-24T15:30:36;11.80;1.00
6756;DHT22;3415;51.148;7.014;2023-04-24T15:33:05;11.60;1.00
6756;DHT22;3415;51.148;7.014;2023-04-24T15:35:31;11.60;1.00
6756;DHT22;3415;51.148;7.014;2023-04-24T15:37:58;11.80;1.00
6756;DHT22;3415;51.148;7.014;2023-04-24T15:40:25;12.00;1.00
6756;DHT22;3415;51.148;7.014;2023-04-24T15:42:53;11.90;1.00
6756;DHT22;3415;51.148;7.014;2023-04-24T15:45:20;11.80;1.00
6756;DHT22;3415;51.148;7.014;2023-04-24T15:47:46;11.60;1.00
6756;DHT22;3415;51.148;7.014;2023-04-24T15:50:15;11.50;1.00
6756;DHT22;3415;51.148;7.014;2023-04-24T15:52:42;11.50;1.00
6756;DHT22;3415;51.148;7.014;2023-04-24T15:55:10;11.50;1.00
6756;DHT22;3415;51.148;7.014;2023-04-24T15:57:37;11.60;1.00
6756;DHT22;3415;51.148;7.014;2023-04-24T16:00:06;11.40;1.00
6756;DHT22;3415;51.148;7.014;2023-04-24T16:02:34;11.50;1.00
6756;DHT22;3415;51.148;7.014;2023-04-24T16:05:01;11.30;1.00
6756;DHT22;3415;51.148;7.014;2023-04-24T16:07:30;11.40;1.00
6756;DHT22;3415;51.148;7.014;2023-04-24T16:09:57;11.30;1.00
6756;DHT22;3415;51.148;7.014;2023-04-24T16:12:24;11.30;1.00
6756;DHT22;3415;51.148;7.014;2023-04-24T16:14:52;11.30;1.00
6756;DHT22;3415;51.148;7.014;2023-04-24T16:17:19;11.30;1.00
6756;DHT22;3415;51.148;7.014;2023-04-24T16:19:46;11.50;1.00
6756;DHT22;3415;51.148;7.014;2023-04-24T16:22:13;11.70;1.00
6756;DHT22;3415;51.148;7.014;2023-04-24T16:24:41;11.70;1.00
6756;DHT22;3415;51.148;7.014;2023-04-24T16:27:09;11.70;1.00
6756;DHT22;3415;51.148;7.014;2023-04-24T16:29:36;11.50;1.00
6756;DHT22;3415;51.148;7.014;2023-04-24T16:32:03;11.50;1.00
6756;DHT22;3415;51.148;7.014;2023-04-24T16:34:29;11.50;1.00
6756;DHT22;3415;51.148;7.014;2023-04-24T16:36:56;11.60;1.00
6756;DHT22;3415;51.148;7.014;2023-04-24T16:39:23;11.40;1.00
6756;DHT22;3415;51.148;7.014;2023-04-24T16:41:52;11.20;1.00
6756;DHT22;3415;51.148;7.014;2023-04-24T16:44:19;11.20;1.00
6756;DHT22;3415;51.148;7.014;2023-04-24T16:46:46;11.30;1.00
6756;DHT22;3415;51.148;7.014;2023-04-24T16:49:13;11.30;1.00